createdAt,value
2019-03-03T00:01:59.095Z,98.80
2019-03-03T00:04:28.687Z,98.70
2019-03-03T00:06:59.396Z,98.90
2019-03-03T00:09:29.246Z,98.60
2019-03-03T00:12:00.092Z,98.20
2019-03-03T00:14:29.690Z,97.90
2019-03-03T00:16:59.289Z,97.70
2019-03-03T00:19:32.464Z,98.40
2019-03-03T00:22:02.253Z,98.30
2019-03-03T00:24:31.832Z,97.60
2019-03-03T00:27:02.010Z,97.70
2019-03-03T00:29:32.106Z,97.00
2019-03-03T00:32:01.785Z,98.50
2019-03-03T00:34:31.632Z,98.40
2019-03-03T00:37:22.307Z,98.30
2019-03-03T00:40:13.823Z,98.00
2019-03-03T00:43:01.370Z,97.90
2019-03-03T00:45:49.947Z,98.20
2019-03-03T00:48:42.584Z,98.10
2019-03-03T00:51:34.567Z,97.80
2019-03-03T00:54:23.459Z,98.40
2019-03-03T00:57:09.551Z,97.60
2019-03-03T01:00:02.436Z,97.90
2019-03-03T01:02:42.966Z,97.30
2019-03-03T01:05:40.718Z,97.70
2019-03-03T01:08:26.472Z,97.40
2019-03-03T01:11:13.196Z,97.40
2019-03-03T01:13:56.555Z,97.30
2019-03-03T01:16:46.603Z,97.50
2019-03-03T01:19:41.087Z,97.70
2019-03-03T01:22:40.395Z,97.50
2019-03-03T01:25:09.937Z,97.80
2019-03-03T01:27:39.765Z,97.10
2019-03-03T01:30:11.403Z,97.10
2019-03-03T01:32:41.077Z,97.70
2019-03-03T01:35:11.080Z,97.70
2019-03-03T01:37:40.843Z,97.50
2019-03-03T01:40:12.619Z,97.30
2019-03-03T01:42:43.443Z,97.60
2019-03-03T01:45:13.531Z,97.20
2019-03-03T01:47:43.385Z,97.20
2019-03-03T01:50:14.922Z,96.70
2019-03-03T01:52:44.540Z,96.70
2019-03-03T01:55:16.086Z,97.10
2019-03-03T01:57:46.815Z,97.60
2019-03-03T02:00:21.486Z,97.20
2019-03-03T02:02:51.320Z,97.50
2019-03-03T02:05:20.905Z,98.50
2019-03-03T02:07:51.140Z,98.00
2019-03-03T02:10:23.188Z,97.90
2019-03-03T02:12:52.927Z,98.20
2019-03-03T02:15:23.314Z,97.60
2019-03-03T02:17:54.469Z,98.70
2019-03-03T02:20:24.022Z,98.20
2019-03-03T02:22:54.658Z,97.90
2019-03-03T02:25:24.507Z,99.10
2019-03-03T02:27:54.155Z,98.10
2019-03-03T02:30:26.070Z,98.60
2019-03-03T02:32:55.815Z,98.40
2019-03-03T02:35:25.659Z,98.30
2019-03-03T02:37:55.445Z,98.50
2019-03-03T02:40:25.083Z,98.00
2019-03-03T02:42:55.091Z,97.90
2019-03-03T02:45:25.212Z,98.30
2019-03-03T02:47:57.184Z,98.20
2019-03-03T02:50:29.207Z,97.90
2019-03-03T02:53:00.452Z,98.20
2019-03-03T02:55:30.053Z,98.40
2019-03-03T02:57:59.875Z,98.40
2019-03-03T03:00:30.494Z,97.90
2019-03-03T03:03:01.469Z,98.60
2019-03-03T03:05:57.451Z,98.90
2019-03-03T03:08:35.273Z,98.80
2019-03-03T03:11:17.292Z,98.40
2019-03-03T03:14:03.767Z,98.70
2019-03-03T03:17:04.233Z,97.80
2019-03-03T03:19:58.860Z,98.80
2019-03-03T03:22:46.896Z,97.60
2019-03-03T03:25:42.272Z,97.80
2019-03-03T03:28:38.871Z,98.40
2019-03-03T03:31:20.232Z,97.70
2019-03-03T03:33:54.876Z,97.50
2019-03-03T03:36:41.081Z,97.20
2019-03-03T03:39:39.046Z,97.10
2019-03-03T03:42:17.285Z,97.40
2019-03-03T03:45:00.513Z,98.20
2019-03-03T03:47:50.288Z,98.60
2019-03-03T03:50:34.705Z,98.70
2019-03-03T03:53:23.525Z,97.40
2019-03-03T03:56:02.950Z,97.80
2019-03-03T03:58:52.659Z,97.90
2019-03-03T04:01:41.271Z,98.80
2019-03-03T04:04:35.497Z,98.90
2019-03-03T04:07:10.110Z,99.80
2019-03-03T04:09:58.995Z,99.80
2019-03-03T04:12:44.415Z,99.00
2019-03-03T04:15:39.915Z,99.10
2019-03-03T04:18:16.935Z,99.00
2019-03-03T04:21:19.807Z,99.20
2019-03-03T04:24:03.624Z,98.90
2019-03-03T04:26:45.371Z,98.90
2019-03-03T04:29:28.265Z,99.10
2019-03-03T04:32:04.858Z,99.30
2019-03-03T04:34:47.920Z,99.40
2019-03-03T04:37:26.883Z,97.90
2019-03-03T04:40:22.624Z,98.20
2019-03-03T04:43:02.598Z,98.70
2019-03-03T04:45:53.111Z,99.00
2019-03-03T04:48:34.428Z,99.30
2019-03-03T04:51:33.691Z,99.40
2019-03-03T04:54:20.326Z,99.90
2019-03-03T04:57:20.859Z,99.90
2019-03-03T05:00:09.173Z,99.50
2019-03-03T05:03:01.056Z,99.40
2019-03-03T05:05:41.007Z,99.70
2019-03-03T05:08:25.227Z,99.80
2019-03-03T05:11:12.685Z,98.50
2019-03-03T05:14:01.207Z,98.40
2019-03-03T05:16:51.028Z,99.70
2019-03-03T05:19:37.588Z,99.60
2019-03-03T05:22:07.884Z,99.70
2019-03-03T05:24:37.655Z,99.90
2019-03-03T05:27:09.090Z,99.90
2019-03-03T05:29:41.027Z,99.90
2019-03-03T05:32:10.953Z,99.90
2019-03-03T05:34:40.643Z,99.90
2019-03-03T05:37:11.231Z,99.90
2019-03-03T05:39:42.426Z,99.90
2019-03-03T05:42:12.587Z,99.90
2019-03-03T05:44:42.939Z,99.90
2019-03-03T05:47:12.685Z,99.90
2019-03-03T05:49:44.111Z,99.90
2019-03-03T05:52:14.043Z,99.90
2019-03-03T05:54:44.267Z,99.90
2019-03-03T05:57:13.905Z,99.90
2019-03-03T05:59:43.455Z,99.90
2019-03-03T06:02:13.035Z,99.90
2019-03-03T06:04:44.070Z,99.90
2019-03-03T06:07:13.719Z,99.90
2019-03-03T06:09:43.527Z,99.90
2019-03-03T06:12:14.283Z,99.80
2019-03-03T06:14:44.970Z,99.40
2019-03-03T06:17:14.683Z,99.90
2019-03-03T06:19:44.327Z,99.90
2019-03-03T06:22:13.869Z,99.90
2019-03-03T06:24:43.671Z,99.90
2019-03-03T06:27:13.492Z,99.90
2019-03-03T06:29:43.348Z,99.90
2019-03-03T06:32:14.712Z,99.90
2019-03-03T06:34:45.474Z,99.90
2019-03-03T06:37:15.533Z,99.90
2019-03-03T06:39:46.345Z,99.90
2019-03-03T06:42:16.483Z,99.90
2019-03-03T06:44:46.096Z,99.90
2019-03-03T06:47:17.139Z,99.90
2019-03-03T06:49:47.319Z,99.90
2019-03-03T06:52:17.061Z,99.90
2019-03-03T06:54:46.650Z,99.90
2019-03-03T06:57:16.281Z,99.90
2019-03-03T06:59:45.823Z,99.90
2019-03-03T07:02:15.668Z,99.90
2019-03-03T07:04:45.303Z,99.90
2019-03-03T07:07:16.814Z,99.90
2019-03-03T07:09:46.447Z,99.90
2019-03-03T07:12:16.089Z,99.90
2019-03-03T07:14:45.811Z,99.90
2019-03-03T07:17:15.605Z,99.90
2019-03-03T07:19:46.415Z,99.90
2019-03-03T07:22:17.859Z,99.90
2019-03-03T07:24:49.355Z,99.90
2019-03-03T07:27:19.064Z,99.90
2019-03-03T07:29:48.679Z,99.90
2019-03-03T07:32:18.875Z,99.90
2019-03-03T07:34:48.743Z,99.90
2019-03-03T07:37:18.471Z,99.90
2019-03-03T07:39:50.132Z,99.90
2019-03-03T07:42:19.864Z,99.90
2019-03-03T07:44:49.680Z,99.90
2019-03-03T07:47:19.290Z,99.90
2019-03-03T07:49:52.364Z,99.90
2019-03-03T07:52:22.651Z,99.90
2019-03-03T07:54:52.319Z,99.90
2019-03-03T07:57:22.675Z,99.90
2019-03-03T07:59:52.320Z,99.90
2019-03-03T08:02:22.115Z,99.90
2019-03-03T08:04:51.868Z,99.90
2019-03-03T08:07:23.314Z,99.90
2019-03-03T08:09:53.234Z,99.90
2019-03-03T08:12:23.063Z,99.90
2019-03-03T08:14:53.140Z,99.90
2019-03-03T08:17:23.756Z,99.90
2019-03-03T08:19:53.496Z,99.90
2019-03-03T08:22:23.695Z,99.90
2019-03-03T08:24:53.269Z,99.90
2019-03-03T08:27:23.052Z,99.90
2019-03-03T08:29:52.864Z,99.90
2019-03-03T08:32:22.714Z,99.90
2019-03-03T08:34:54.703Z,99.90
2019-03-03T08:37:24.348Z,99.90
2019-03-03T08:39:54.240Z,99.90
2019-03-03T08:42:31.824Z,99.90
2019-03-03T08:45:14.659Z,99.90
2019-03-03T08:47:53.651Z,99.90
2019-03-03T08:50:31.771Z,99.90
2019-03-03T08:53:13.351Z,99.90
2019-03-03T08:56:05.094Z,99.90
2019-03-03T08:59:02.759Z,99.90
2019-03-03T09:01:51.323Z,99.90
2019-03-03T09:04:39.824Z,99.90
2019-03-03T09:07:38.406Z,99.90
2019-03-03T09:10:25.066Z,99.90
2019-03-03T09:13:05.687Z,99.90
2019-03-03T09:15:57.163Z,99.90
2019-03-03T09:18:38.627Z,99.90
2019-03-03T09:21:16.247Z,99.90
2019-03-03T09:24:04.613Z,99.90
2019-03-03T09:27:05.535Z,99.90
2019-03-03T09:29:56.983Z,99.90
2019-03-03T09:32:44.340Z,99.90
2019-03-03T09:35:39.875Z,99.90
2019-03-03T09:38:27.920Z,99.90
2019-03-03T09:41:15.601Z,99.90
2019-03-03T09:43:55.019Z,99.90
2019-03-03T09:46:31.500Z,99.90
2019-03-03T09:49:18.996Z,99.90
2019-03-03T09:52:14.496Z,99.90
2019-03-03T09:55:22.238Z,99.90
2019-03-03T09:58:11.217Z,99.90
2019-03-03T10:00:57.793Z,99.90
2019-03-03T10:03:46.881Z,99.90
2019-03-03T10:06:25.519Z,99.90
2019-03-03T10:09:24.228Z,99.90
2019-03-03T10:12:05.515Z,99.90
2019-03-03T10:14:53.940Z,99.90
2019-03-03T10:17:41.096Z,99.90
2019-03-03T10:20:48.680Z,99.90
2019-03-03T10:23:36.096Z,99.90
2019-03-03T10:26:24.816Z,99.90
2019-03-03T10:29:01.991Z,99.90
2019-03-03T10:31:42.007Z,99.90
2019-03-03T10:34:17.155Z,99.90
2019-03-03T10:36:57.167Z,99.90
2019-03-03T10:39:45.868Z,99.90
2019-03-03T10:42:33.599Z,99.90
2019-03-03T10:45:29.695Z,99.90
2019-03-03T10:48:21.251Z,99.90
2019-03-03T10:51:09.822Z,99.90
2019-03-03T10:53:45.847Z,99.90
2019-03-03T10:56:43.703Z,99.90
2019-03-03T10:59:38.432Z,99.90
2019-03-03T11:02:27.179Z,99.90
2019-03-03T11:05:15.755Z,99.90
2019-03-03T11:08:04.214Z,99.90
2019-03-03T11:10:57.748Z,99.90
2019-03-03T11:13:48.742Z,99.90
2019-03-03T11:16:43.647Z,99.90
2019-03-03T11:19:36.600Z,99.90
2019-03-03T11:22:18.283Z,99.90
2019-03-03T11:25:08.660Z,99.90
2019-03-03T11:28:09.305Z,99.90
2019-03-03T11:30:46.583Z,99.90
2019-03-03T11:33:39.623Z,99.90
2019-03-03T11:36:27.791Z,99.90
2019-03-03T11:39:11.872Z,99.90
2019-03-03T11:41:59.350Z,99.90
2019-03-03T11:44:57.983Z,99.90
2019-03-03T11:47:39.156Z,99.90
2019-03-03T11:50:28.543Z,99.90
2019-03-03T11:53:16.511Z,99.90
2019-03-03T11:55:56.710Z,99.90
2019-03-03T11:58:48.307Z,99.90
2019-03-03T12:01:47.587Z,99.90
2019-03-03T12:04:38.651Z,99.90
2019-03-03T12:07:26.520Z,99.90
2019-03-03T12:10:30.019Z,99.90
2019-03-03T12:13:18.503Z,99.90
2019-03-03T12:16:07.684Z,99.90
2019-03-03T12:19:03.537Z,99.90
2019-03-03T12:21:55.185Z,99.90
2019-03-03T12:24:44.124Z,99.90
2019-03-03T12:27:32.343Z,99.90
2019-03-03T12:30:21.041Z,99.90
2019-03-03T12:33:27.879Z,99.90
2019-03-03T12:36:14.198Z,99.90
2019-03-03T12:38:58.850Z,99.90
2019-03-03T12:42:00.661Z,99.90
2019-03-03T12:44:49.625Z,99.90
2019-03-03T12:47:28.951Z,99.90
2019-03-03T12:50:16.837Z,99.90
2019-03-03T12:53:11.347Z,99.90
2019-03-03T12:55:50.195Z,99.90
2019-03-03T12:58:53.807Z,99.90
2019-03-03T13:01:50.735Z,99.90
2019-03-03T13:04:40.316Z,99.90
2019-03-03T13:07:47.367Z,99.90
2019-03-03T13:10:52.047Z,99.90
2019-03-03T13:13:40.563Z,99.90
2019-03-03T13:16:28.000Z,99.90
2019-03-03T13:19:10.995Z,99.90
2019-03-03T13:22:14.799Z,99.90
2019-03-03T13:25:12.867Z,99.90
2019-03-03T13:28:04.665Z,99.90
2019-03-03T13:30:53.411Z,99.90
2019-03-03T13:33:42.047Z,99.90
2019-03-03T13:36:29.348Z,99.90
2019-03-03T13:39:16.240Z,99.90
2019-03-03T13:42:04.768Z,99.90
2019-03-03T13:44:34.512Z,99.90
2019-03-03T13:47:04.068Z,99.90
2019-03-03T13:49:33.897Z,99.90
2019-03-03T13:52:03.542Z,99.90
2019-03-03T13:54:34.375Z,99.90
2019-03-03T13:57:05.451Z,99.90
2019-03-03T13:59:35.299Z,99.90
2019-03-03T14:02:05.052Z,99.90
2019-03-03T14:04:34.966Z,99.90
2019-03-03T14:07:04.856Z,99.90
2019-03-03T14:09:36.336Z,99.90
2019-03-03T14:12:07.331Z,99.90
2019-03-03T14:14:38.803Z,99.90
2019-03-03T14:17:09.176Z,99.90
2019-03-03T14:19:38.871Z,99.90
2019-03-03T14:22:08.487Z,99.90
2019-03-03T14:24:38.219Z,99.90
2019-03-03T14:27:10.551Z,99.90
2019-03-03T14:29:39.163Z,99.90
2019-03-03T14:32:11.911Z,99.90
2019-03-03T14:34:41.650Z,99.90
2019-03-03T14:37:13.369Z,99.90
2019-03-03T14:39:44.040Z,99.90
2019-03-03T14:42:15.431Z,99.90
2019-03-03T14:44:44.996Z,99.90
2019-03-03T14:47:14.680Z,99.90
2019-03-03T14:49:44.320Z,99.90
2019-03-03T14:52:13.960Z,99.90
2019-03-03T14:54:45.422Z,99.90
2019-03-03T14:57:14.999Z,99.90
2019-03-03T14:59:46.356Z,99.90
2019-03-03T15:02:16.177Z,99.90
2019-03-03T15:04:45.955Z,99.90
2019-03-03T15:07:15.717Z,99.90
2019-03-03T15:09:45.563Z,99.90
2019-03-03T15:12:15.408Z,99.90
2019-03-03T15:14:45.587Z,99.90
2019-03-03T15:17:16.472Z,99.90
2019-03-03T15:19:46.211Z,99.90
2019-03-03T15:22:16.095Z,99.90
2019-03-03T15:24:45.875Z,99.90
2019-03-03T15:27:17.203Z,99.90
2019-03-03T15:29:47.853Z,99.90
2019-03-03T15:32:17.408Z,99.90
2019-03-03T15:34:47.055Z,99.90
2019-03-03T15:37:18.559Z,99.90
2019-03-03T15:39:51.308Z,99.90
2019-03-03T15:42:20.887Z,99.90
2019-03-03T15:44:50.943Z,99.90
2019-03-03T15:47:23.141Z,99.90
2019-03-03T15:49:52.696Z,99.90
2019-03-03T15:52:22.310Z,99.90
2019-03-03T15:54:52.056Z,99.90
2019-03-03T15:57:22.855Z,99.90
2019-03-03T15:59:52.676Z,99.90
2019-03-03T16:02:22.291Z,99.90
2019-03-03T16:04:51.837Z,99.90
2019-03-03T16:07:22.517Z,99.90
2019-03-03T16:09:52.059Z,99.90
2019-03-03T16:12:23.459Z,99.90
2019-03-03T16:14:55.714Z,99.90
2019-03-03T16:17:25.406Z,99.90
2019-03-03T16:19:57.791Z,99.90
2019-03-03T16:22:28.051Z,99.90
2019-03-03T16:24:57.759Z,99.90
2019-03-03T16:27:27.719Z,99.90
2019-03-03T16:29:57.511Z,99.90
2019-03-03T16:32:27.536Z,99.90
2019-03-03T16:34:57.151Z,99.90
2019-03-03T16:37:26.771Z,99.80
2019-03-03T16:39:57.763Z,99.50
2019-03-03T16:42:29.231Z,99.60
2019-03-03T16:44:58.848Z,99.60
2019-03-03T16:47:30.340Z,99.50
2019-03-03T16:50:00.928Z,99.40
2019-03-03T16:52:32.064Z,99.70
2019-03-03T16:55:04.310Z,99.50
2019-03-03T16:57:34.594Z,99.10
2019-03-03T17:00:06.720Z,99.30
2019-03-03T17:02:36.306Z,99.30
2019-03-03T17:05:07.603Z,99.20
2019-03-03T17:07:42.240Z,99.30
2019-03-03T17:10:12.128Z,99.20
2019-03-03T17:12:42.038Z,99.40
2019-03-03T17:15:14.855Z,99.50
2019-03-03T17:17:45.696Z,99.60
2019-03-03T17:20:15.666Z,99.30
2019-03-03T17:22:45.344Z,99.40
2019-03-03T17:25:16.855Z,99.30
2019-03-03T17:27:47.519Z,99.10
2019-03-03T17:30:19.543Z,99.00
2019-03-03T17:32:49.163Z,99.30
2019-03-03T17:35:18.977Z,99.30
2019-03-03T17:37:48.611Z,99.30
2019-03-03T17:40:19.589Z,98.80
2019-03-03T17:42:50.943Z,98.70
2019-03-03T17:45:21.244Z,99.00
2019-03-03T17:47:51.990Z,99.00
2019-03-03T17:50:22.210Z,98.30
2019-03-03T17:52:53.279Z,98.60
2019-03-03T17:55:23.493Z,98.90
2019-03-03T17:57:53.444Z,98.90
2019-03-03T18:00:25.180Z,98.50
2019-03-03T18:03:03.311Z,98.60
2019-03-03T18:05:32.901Z,98.60
2019-03-03T18:08:04.713Z,98.20
2019-03-03T18:10:35.891Z,98.30
2019-03-03T18:13:06.987Z,98.30
2019-03-03T18:15:36.807Z,98.30
2019-03-03T18:18:07.627Z,98.10
2019-03-03T18:20:37.397Z,98.00
2019-03-03T18:23:08.808Z,98.60
2019-03-03T18:25:40.063Z,98.70
2019-03-03T18:28:10.126Z,98.20
2019-03-03T18:30:41.632Z,98.50
2019-03-03T18:33:12.929Z,98.20
2019-03-03T18:35:42.732Z,98.30
2019-03-03T18:38:12.293Z,98.50
2019-03-03T18:40:43.103Z,98.30
2019-03-03T18:43:12.840Z,98.30
2019-03-03T18:45:42.772Z,98.20
2019-03-03T18:48:12.472Z,98.20
2019-03-03T18:50:42.322Z,98.10
2019-03-03T18:53:15.895Z,97.80
2019-03-03T18:55:45.659Z,97.70
2019-03-03T18:58:15.234Z,97.80
2019-03-03T19:00:44.839Z,97.80
2019-03-03T19:03:16.980Z,97.50
2019-03-03T19:05:55.452Z,97.40
2019-03-03T19:08:17.972Z,97.50
2019-03-03T19:10:48.355Z,97.50
2019-03-03T19:13:18.091Z,97.30
2019-03-03T19:15:48.142Z,97.10
2019-03-03T19:18:17.893Z,97.50
2019-03-03T19:20:47.578Z,97.10
2019-03-03T19:23:17.751Z,97.40
2019-03-03T19:25:48.500Z,97.70
2019-03-03T19:28:20.087Z,97.10
2019-03-03T19:30:51.757Z,97.20
2019-03-03T19:33:25.641Z,97.30
2019-03-03T19:35:55.535Z,97.20
2019-03-03T19:38:25.444Z,97.70
2019-03-03T19:40:57.006Z,97.40
2019-03-03T19:43:28.053Z,97.30
2019-03-03T19:45:57.897Z,97.70
2019-03-03T19:48:29.518Z,97.80
2019-03-03T19:51:00.708Z,97.50
2019-03-03T19:53:30.732Z,97.70
2019-03-03T19:56:00.316Z,97.40
2019-03-03T19:58:31.491Z,97.60
2019-03-03T20:01:01.395Z,97.30
2019-03-03T20:03:31.160Z,97.20
2019-03-03T20:06:02.393Z,97.60
2019-03-03T20:08:33.218Z,97.30
2019-03-03T20:11:02.884Z,97.30
2019-03-03T20:13:35.712Z,97.20
2019-03-03T20:16:05.455Z,97.40
2019-03-03T20:18:34.991Z,97.20
2019-03-03T20:21:05.007Z,97.40
2019-03-03T20:23:34.935Z,96.90
2019-03-03T20:26:04.939Z,97.20
2019-03-03T20:28:34.491Z,97.80
2019-03-03T20:31:04.259Z,98.10
2019-03-03T20:33:34.118Z,98.20
2019-03-03T20:36:05.303Z,98.60
2019-03-03T20:38:37.571Z,98.50
2019-03-03T20:41:08.616Z,98.60
2019-03-03T20:43:40.057Z,98.80
2019-03-03T20:46:09.815Z,98.30
2019-03-03T20:48:39.594Z,98.50
2019-03-03T20:51:09.163Z,98.10
2019-03-03T20:53:39.848Z,97.90
2019-03-03T20:56:09.595Z,97.90
2019-03-03T20:58:41.644Z,98.00
2019-03-03T21:01:11.848Z,97.30
2019-03-03T21:03:41.605Z,97.50
2019-03-03T21:06:12.980Z,98.00
2019-03-03T21:08:43.046Z,97.90
2019-03-03T21:11:12.907Z,97.90
2019-03-03T21:13:42.696Z,97.70
2019-03-03T21:16:14.282Z,97.70
2019-03-03T21:18:45.864Z,97.80
2019-03-03T21:21:15.643Z,97.60
2019-03-03T21:23:45.183Z,97.80
2019-03-03T21:26:16.082Z,97.80
2019-03-03T21:28:45.992Z,97.50
2019-03-03T21:31:16.143Z,97.80
2019-03-03T21:33:45.675Z,97.90
2019-03-03T21:36:16.362Z,98.10
2019-03-03T21:38:46.199Z,98.50
2019-03-03T21:41:15.836Z,98.10
2019-03-03T21:43:45.471Z,98.40
2019-03-03T21:46:16.665Z,97.90
2019-03-03T21:48:47.256Z,98.00
2019-03-03T21:51:16.931Z,97.90
2019-03-03T21:53:48.580Z,98.30
2019-03-03T21:56:18.155Z,97.60
2019-03-03T21:58:48.171Z,97.60
2019-03-03T22:01:17.707Z,97.90
2019-03-03T22:03:47.597Z,97.40
2019-03-03T22:06:17.540Z,97.20
2019-03-03T22:08:47.327Z,97.10
2019-03-03T22:11:16.904Z,97.20
2019-03-03T22:13:50.148Z,97.10
2019-03-03T22:16:22.714Z,97.30
2019-03-03T22:18:54.192Z,97.30
2019-03-03T22:21:25.774Z,96.80
2019-03-03T22:23:55.803Z,96.80
2019-03-03T22:26:25.483Z,96.70
2019-03-03T22:28:55.085Z,96.80
2019-03-03T22:31:24.779Z,96.70
2019-03-03T22:33:54.508Z,96.70
2019-03-03T22:36:27.491Z,96.70
2019-03-03T22:38:58.182Z,96.20
2019-03-03T22:41:27.763Z,96.30
2019-03-03T22:43:58.543Z,96.20
2019-03-03T22:46:28.135Z,96.50
2019-03-03T22:48:57.924Z,96.30
2019-03-03T22:51:27.671Z,96.50
2019-03-03T22:53:58.236Z,96.70
2019-03-03T22:56:27.916Z,96.60
2019-03-03T22:58:57.588Z,96.50
2019-03-03T23:01:42.735Z,96.90
2019-03-03T23:04:43.447Z,97.30
2019-03-03T23:07:52.247Z,96.70
2019-03-03T23:10:46.903Z,97.00
2019-03-03T23:13:26.699Z,97.40
2019-03-03T23:16:14.823Z,97.20
2019-03-03T23:18:54.844Z,97.00
2019-03-03T23:22:11.442Z,97.50
2019-03-03T23:25:37.459Z,97.40
2019-03-03T23:28:09.620Z,97.20
2019-03-03T23:30:39.440Z,97.20
2019-03-03T23:33:09.204Z,97.00
2019-03-03T23:35:38.847Z,96.50
2019-03-03T23:38:09.588Z,96.80
2019-03-03T23:40:40.276Z,96.60
2019-03-03T23:43:12.021Z,96.30
2019-03-03T23:45:41.819Z,96.50
2019-03-03T23:48:14.214Z,96.00
2019-03-03T23:50:45.317Z,95.60
2019-03-03T23:53:17.192Z,95.70
2019-03-03T23:55:46.792Z,96.50
2019-03-03T23:58:16.875Z,95.70
